Time;durP1;ratioP1;P1;durP2;ratioP2;P2;SDS_P1;SDS_P2;PMS_P1;PMS_P2;Temp;Humidity;BMP_temperature;BMP_pressure;BME280_temperature;BME280_humidity;BME280_pressure;Samples;Min_cycle;Max_cycle;Signal;HPM_P1;HPM_P2
2022/12/23 00:00:44;;;;;;;10.90;8.48;;;;;;;20.14;46.68;101046.88;4771994;30;20062;-47
2022/12/23 00:03:11;;;;;;;11.05;9.13;;;;;;;20.13;46.62;101037.09;4772948;30;20059;-49
2022/12/23 00:05:39;;;;;;;11.77;9.00;;;;;;;20.13;46.63;101038.91;4772781;30;20052;-47
2022/12/23 00:08:07;;;;;;;11.75;10.05;;;;;;;20.13;46.68;101053.22;4772765;30;20054;-48
2022/12/23 00:10:39;;;;;;;10.57;8.95;;;;;;;20.12;46.38;101070.31;4772992;30;20055;-49
2022/12/23 00:16:02;;;;;;;9.75;8.75;;;;;;;20.10;46.24;101066.94;4772865;30;20062;-48
2022/12/23 00:18:30;;;;;;;10.65;9.40;;;;;;;20.09;46.30;101081.34;4772859;30;20047;-49
2022/12/23 00:21:02;;;;;;;12.07;9.30;;;;;;;20.09;46.19;101077.78;4772644;30;20536;-49
2022/12/23 00:23:38;;;;;;;12.25;8.82;;;;;;;20.07;46.23;101061.81;4772789;30;20055;-50
2022/12/23 00:26:06;;;;;;;9.68;8.43;;;;;;;20.08;46.07;101068.03;4772755;30;20051;-48
2022/12/23 00:28:33;;;;;;;11.95;9.18;;;;;;;20.07;46.14;101056.44;4772547;30;20052;-47
2022/12/23 00:31:03;;;;;;;9.77;8.77;;;;;;;20.05;46.10;101050.31;4772839;30;20066;-48
2022/12/23 00:33:36;;;;;;;9.68;8.68;;;;;;;20.06;45.87;101053.91;4772521;30;20048;-49
2022/12/23 00:36:12;;;;;;;9.57;8.18;;;;;;;20.04;45.96;101067.44;4772449;30;20052;-47
2022/12/23 00:44:11;;;;;;;10.63;8.55;;;;;;;20.01;45.91;101048.88;4772465;30;20541;-47
2022/12/23 00:46:39;;;;;;;12.02;9.75;;;;;;;20.00;46.10;101052.56;4772293;30;20063;-56
2022/12/23 00:51:52;;;;;;;11.32;8.60;;;;;;;19.98;45.84;101078.72;4772299;30;20062;-57
2022/12/23 00:54:19;;;;;;;9.93;8.88;;;;;;;19.99;46.02;101080.44;4772277;30;20066;-57
2022/12/23 00:56:46;;;;;;;8.80;7.70;;;;;;;19.98;45.81;101078.72;4772275;30;20055;-57
2022/12/23 00:59:14;;;;;;;10.27;8.65;;;;;;;19.98;45.89;101084.09;4771985;30;20051;-57
2022/12/23 01:07:13;;;;;;;10.02;8.80;;;;;;;19.96;45.97;101070.78;4772541;30;20063;-57
2022/12/23 01:09:40;;;;;;;10.20;8.20;;;;;;;19.97;45.89;101079.69;4772020;30;20052;-57
2022/12/23 01:12:07;;;;;;;8.88;7.97;;;;;;;19.96;45.92;101075.31;4772037;30;20056;-56
2022/12/23 01:14:35;;;;;;;10.95;9.35;;;;;;;19.95;45.82;101079.84;4772239;30;20063;-56
2022/12/23 01:17:03;;;;;;;11.15;9.10;;;;;;;19.95;45.86;101084.34;4772367;30;20059;-57
2022/12/23 01:19:30;;;;;;;9.35;8.07;;;;;;;19.95;45.90;101089.72;4771754;30;20048;-56
2022/12/23 01:21:58;;;;;;;9.63;8.63;;;;;;;19.95;45.81;101111.22;4772356;30;20055;-57
2022/12/23 01:24:29;;;;;;;11.32;9.07;;;;;;;19.94;45.81;101110.38;4771760;30;20048;-57
2022/12/23 01:26:57;;;;;;;10.35;8.27;;;;;;;19.94;45.93;101115.75;4771690;30;20054;-57
2022/12/23 01:29:25;;;;;;;10.45;9.25;;;;;;;19.93;45.92;101116.75;4771652;30;20056;-57
2022/12/23 01:31:52;;;;;;;9.88;8.88;;;;;;;19.93;45.91;101118.56;4771928;30;20055;-57
2022/12/23 01:34:20;;;;;;;10.38;8.73;;;;;;;19.91;45.58;101110.63;4771441;30;20059;-57
2022/12/23 01:36:47;;;;;;;9.60;8.63;;;;;;;19.92;45.74;101111.47;4771498;30;20629;-56
2022/12/23 01:39:14;;;;;;;11.13;8.85;;;;;;;19.91;46.06;101134.81;4771371;30;20506;-57
2022/12/23 01:44:52;;;;;;;9.73;8.55;;;;;;;19.91;45.80;101117.84;4771469;30;20052;-57
2022/12/23 01:47:26;;;;;;;10.95;8.65;;;;;;;19.90;45.85;101121.53;4771331;30;20483;-57
2022/12/23 01:50:07;;;;;;;10.57;9.23;;;;;;;19.89;45.89;101101.88;4771311;30;20048;-57
2022/12/23 01:52:50;;;;;;;10.38;8.95;;;;;;;19.89;45.92;101084.88;4771195;30;20055;-57
2022/12/23 01:55:21;;;;;;;11.32;8.75;;;;;;;19.88;45.79;101080.47;4771260;30;20059;-57
2022/12/23 01:57:50;;;;;;;8.95;8.05;;;;;;;19.88;46.13;101088.53;4771127;30;20423;-57
2022/12/23 02:05:50;;;;;;;10.50;8.63;;;;;;;19.86;46.19;101095.88;4771597;30;20059;-57
2022/12/23 02:11:33;;;;;;;10.80;8.80;;;;;;;19.86;46.29;101120.06;4770596;30;20074;-54
2022/12/23 02:17:26;;;;;;;10.00;8.98;;;;;;;19.84;46.34;101103.22;4770849;30;20055;-57
2022/12/23 02:19:59;;;;;;;11.50;8.85;;;;;;;19.83;46.23;101099.66;4770983;30;20051;-57
2022/12/23 02:22:29;;;;;;;;;;;;;;;19.84;46.29;101103.22;4771301;30;20052;-57
2022/12/23 02:25:32;;;;;;;11.20;8.90;;;;;;;19.82;46.51;101094.44;4770764;30;19932;-57
2022/12/23 02:28:14;;;;;;;9.45;8.40;;;;;;;19.84;46.46;101092.47;4754117;30;20075;-57
2022/12/23 02:31:22;;;;;;;11.55;8.82;;;;;;;19.82;46.47;101070.25;4770649;30;20055;-57
2022/12/23 02:33:52;;;;;;;10.65;9.07;;;;;;;19.81;46.38;101057.78;4761246;30;20068;-57
2022/12/23 02:36:41;;;;;;;10.05;8.73;;;;;;;19.80;46.28;101059.63;4770731;30;20063;-57
2022/12/23 02:39:31;;;;;;;9.85;8.85;;;;;;;19.80;46.29;101059.63;4770703;30;20399;-50
2022/12/23 02:42:21;;;;;;;9.93;8.48;;;;;;;19.80;46.19;101065.00;4770618;30;20048;-49
2022/12/23 02:45:17;;;;;;;9.45;8.20;;;;;;;19.80;46.39;101081.13;4770489;30;20398;-50
2022/12/23 02:47:58;;;;;;;9.48;8.57;;;;;;;19.80;46.23;101085.66;4766370;30;20064;-48
2022/12/23 02:50:31;;;;;;;9.60;8.60;;;;;;;19.78;46.32;101066.97;4770551;30;20047;-49
2022/12/23 02:53:03;;;;;;;11.07;9.43;;;;;;;19.79;46.22;101070.50;4770578;30;20059;-48
2022/12/23 02:55:35;;;;;;;9.63;8.60;;;;;;;19.79;46.45;101057.09;4770486;30;20060;-47
2022/12/23 02:58:09;;;;;;;9.13;8.23;;;;;;;19.78;46.16;101058.06;4770546;30;20051;-49
2022/12/23 03:00:39;;;;;;;10.90;9.10;;;;;;;19.76;46.35;101053.66;4770445;30;20056;-49
2022/12/23 03:03:07;;;;;;;9.48;8.48;;;;;;;19.76;46.34;101064.41;4770478;30;20060;-48
2022/12/23 03:05:41;;;;;;;10.25;7.78;;;;;;;19.78;46.32;101052.69;4770419;30;20051;-48
2022/12/23 03:08:15;;;;;;;9.23;8.18;;;;;;;19.77;46.31;101054.53;4770546;30;20488;-50
2022/12/23 03:11:05;;;;;;;11.10;9.32;;;;;;;19.75;46.48;101051.97;4770371;30;20055;-49
2022/12/23 03:14:06;;;;;;;8.40;7.53;;;;;;;19.75;46.26;101027.78;4770328;30;20056;-49
2022/12/23 03:16:56;;;;;;;9.15;8.25;;;;;;;19.74;46.39;101038.66;4770356;30;20055;-49
2022/12/23 03:19:32;;;;;;;9.52;8.63;;;;;;;19.74;46.42;101041.34;4770416;30;20052;-48
2022/12/23 03:22:08;;;;;;;9.55;8.55;;;;;;;19.74;46.54;101034.16;4770336;30;20055;-48
2022/12/23 03:24:39;;;;;;;9.65;8.20;;;;;;;19.74;46.34;101023.41;4773401;30;20056;-49
2022/12/23 03:27:21;;;;;;;9.43;8.50;;;;;;;19.74;46.43;101031.47;4773883;30;20089;-48
2022/12/23 03:30:15;;;;;;;11.00;8.98;;;;;;;19.72;46.50;101033.41;4773504;30;20059;-48
2022/12/23 03:32:58;;;;;;;8.82;7.95;;;;;;;19.72;46.60;101022.66;4773717;30;20052;-50
2022/12/23 03:35:29;;;;;;;;;;;;;;;19.71;46.72;101015.59;4774160;30;20484;-49
2022/12/23 03:37:57;;;;;;;8.18;7.30;;;;;;;19.70;46.60;101021.97;4773637;30;19933;-49
2022/12/23 03:40:37;;;;;;;8.60;7.70;;;;;;;19.70;46.54;101021.09;4773597;30;20048;-49
2022/12/23 03:43:11;;;;;;;9.45;8.55;;;;;;;19.69;46.77;101020.25;4773675;30;20063;-51
2022/12/23 03:45:43;;;;;;;9.35;8.40;;;;;;;19.69;46.80;101036.38;4773558;30;20059;-48
2022/12/23 03:48:18;;;;;;;10.77;8.77;;;;;;;19.69;46.67;101040.91;4773272;30;20096;-49
2022/12/23 03:50:50;;;;;;;10.48;8.23;;;;;;;19.69;46.88;101043.59;4773548;30;20133;-49
2022/12/23 03:53:23;;;;;;;9.77;8.77;;;;;;;19.68;46.82;101031.97;4773405;30;20063;-49
2022/12/23 03:55:55;;;;;;;9.10;8.05;;;;;;;19.67;46.84;101016.84;4773095;30;20051;-48
2022/12/23 03:58:28;;;;;;;8.63;7.57;;;;;;;19.68;46.95;101023.06;4773124;30;20078;-49
2022/12/23 04:01:08;;;;;;;9.20;8.20;;;;;;;19.66;46.88;101025.88;4773525;30;20043;-49
2022/12/23 04:03:52;;;;;;;9.55;8.40;;;;;;;19.67;46.76;101043.69;4772216;30;20056;-48
2022/12/23 04:06:20;;;;;;;9.43;8.23;;;;;;;19.67;46.84;101038.31;4773220;30;20060;-49
2022/12/23 04:08:49;;;;;;;12.50;7.97;;;;;;;19.66;46.82;101011.59;4773173;30;20056;-49
2022/12/23 04:11:16;;;;;;;8.40;7.60;;;;;;;19.66;46.77;101016.97;4772911;30;20502;-50
2022/12/23 04:13:46;;;;;;;9.32;8.40;;;;;;;19.66;46.85;101030.41;4772916;30;20058;-48
2022/12/23 04:16:15;;;;;;;9.15;8.25;;;;;;;19.66;46.89;101030.41;4772845;30;20060;-49
2022/12/23 04:18:42;;;;;;;8.43;7.45;;;;;;;19.65;46.80;101024.19;4772990;30;20056;-48
2022/12/23 04:21:10;;;;;;;9.80;8.80;;;;;;;19.65;46.75;101008.06;4772977;30;20387;-49
2022/12/23 04:23:39;;;;;;;10.05;8.13;;;;;;;19.64;46.59;101000.97;4772947;30;20085;-48
2022/12/23 04:26:06;;;;;;;10.35;7.63;;;;;;;19.65;46.79;101007.22;4772963;30;20056;-48
2022/12/23 04:28:33;;;;;;;8.13;7.32;;;;;;;19.64;46.89;101022.47;4772660;30;20051;-48
2022/12/23 04:31:00;;;;;;;8.27;7.35;;;;;;;19.65;46.75;101031.41;4772662;30;20392;-48
2022/12/23 04:33:28;;;;;;;10.35;7.47;;;;;;;19.64;46.88;101051.16;4772743;30;20407;-48
2022/12/23 04:35:57;;;;;;;9.48;7.63;;;;;;;19.63;46.84;101044.94;4771941;30;20055;-48
2022/12/23 04:38:25;;;;;;;9.63;8.18;;;;;;;19.62;46.99;101035.19;4772553;30;20414;-49
2022/12/23 04:40:52;;;;;;;9.13;7.40;;;;;;;19.63;46.90;101033.34;4772450;30;20059;-48
2022/12/23 04:43:19;;;;;;;8.75;7.80;;;;;;;19.63;46.86;101030.66;4772556;30;20048;-48
2022/12/23 04:45:50;;;;;;;9.95;8.07;;;;;;;19.63;46.93;101046.78;4772516;30;20066;-49
2022/12/23 04:48:18;;;;;;;9.35;8.32;;;;;;;19.62;46.83;101043.22;4772504;30;20063;-49
2022/12/23 04:50:45;;;;;;;9.13;7.97;;;;;;;19.61;46.93;101044.22;4772324;30;20044;-49
2022/12/23 04:53:12;;;;;;;10.25;8.35;;;;;;;19.62;47.07;101040.56;4772528;30;20057;-49
2022/12/23 04:55:40;;;;;;;9.43;7.53;;;;;;;19.62;46.67;101047.75;4771933;30;20055;-48
2022/12/23 04:58:07;;;;;;;7.82;7.00;;;;;;;19.61;47.06;101054.09;4772642;30;20059;-46
2022/12/23 05:00:34;;;;;;;8.02;7.07;;;;;;;19.61;46.99;101048.72;4772282;30;20055;-47
2022/12/23 05:03:06;;;;;;;9.15;7.00;;;;;;;19.60;47.00;101050.53;4772556;30;20059;-48
2022/12/23 05:05:33;;;;;;;8.90;7.40;;;;;;;19.60;47.13;101058.56;4772325;30;20052;-47
2022/12/23 05:08:04;;;;;;;10.55;7.60;;;;;;;19.60;47.31;101046.97;4772062;30;20055;-47
2022/12/23 05:10:32;;;;;;;10.07;7.57;;;;;;;19.59;47.17;101021.97;4771942;30;20079;-49
2022/12/23 05:12:59;;;;;;;7.80;6.72;;;;;;;19.60;47.01;101026.34;4772213;30;20067;-49
2022/12/23 05:15:26;;;;;;;10.73;7.32;;;;;;;19.60;47.06;101038.94;4772041;30;20065;-58
2022/12/23 05:17:53;;;;;;;8.10;7.30;;;;;;;19.60;47.16;101045.16;4770870;30;20067;-57
2022/12/23 05:20:21;;;;;;;9.60;7.28;;;;;;;19.59;46.99;101038.09;4771970;30;20055;-56
2022/12/23 05:22:48;;;;;;;7.85;6.95;;;;;;;19.58;47.12;101028.31;4771755;30;20059;-57
2022/12/23 05:25:15;;;;;;;9.23;7.20;;;;;;;19.58;47.34;101031.00;4771678;30;20051;-57
2022/12/23 05:27:43;;;;;;;8.10;7.28;;;;;;;19.57;47.17;101037.38;4771678;30;20066;-56
2022/12/23 05:30:10;;;;;;;8.20;7.03;;;;;;;19.58;47.09;101040.91;4771544;30;20365;-56
2022/12/23 05:32:38;;;;;;;8.75;6.97;;;;;;;19.58;47.17;101062.38;4771693;30;20075;-57
2022/12/23 05:35:05;;;;;;;8.57;7.07;;;;;;;19.57;47.29;101063.34;4771578;30;20492;-56
2022/12/23 05:37:33;;;;;;;8.77;7.07;;;;;;;19.57;46.86;101045.44;4771537;30;20062;-56
2022/12/23 05:40:00;;;;;;;7.22;6.03;;;;;;;19.56;47.03;101051.75;4771353;30;20058;-55
2022/12/23 05:42:27;;;;;;;8.73;7.65;;;;;;;19.56;47.05;101062.50;4772215;30;20074;-56
2022/12/23 05:44:55;;;;;;;9.02;7.28;;;;;;;19.56;46.97;101051.75;4771552;30;20052;-55
2022/12/23 05:47:22;;;;;;;8.35;7.15;;;;;;;19.55;47.04;101044.69;4771568;30;20058;-56
2022/12/23 05:49:49;;;;;;;7.90;6.35;;;;;;;19.55;46.87;101050.06;4771473;30;20488;-56
2022/12/23 05:52:16;;;;;;;8.48;6.82;;;;;;;19.56;47.19;101048.22;4771814;30;20047;-56
2022/12/23 05:54:44;;;;;;;10.75;7.72;;;;;;;19.55;47.08;101038.47;4771116;30;20051;-56
2022/12/23 05:57:11;;;;;;;9.93;7.35;;;;;;;19.55;47.14;101046.53;4770914;30;20067;-55
2022/12/23 05:59:39;;;;;;;8.57;7.68;;;;;;;19.55;46.91;101050.06;4771142;30;20048;-56
2022/12/23 06:02:06;;;;;;;10.95;7.45;;;;;;;19.55;46.95;101068.00;4771230;30;20055;-56
2022/12/23 06:04:33;;;;;;;11.57;8.48;;;;;;;19.55;47.04;101065.31;4771205;30;20052;-51
2022/12/23 06:07:01;;;;;;;10.80;7.25;;;;;;;19.56;46.99;101075.06;4770059;30;20060;-49
2022/12/23 06:09:28;;;;;;;11.02;8.23;;;;;;;19.53;46.98;101081.56;4770710;30;20051;-56
2022/12/23 06:11:55;;;;;;;8.70;7.55;;;;;;;19.54;47.20;101088.66;4771086;30;20048;-56
2022/12/23 06:14:23;;;;;;;9.63;7.50;;;;;;;19.54;47.21;101096.69;4771185;30;20058;-56
2022/12/23 06:16:55;;;;;;;11.20;8.02;;;;;;;19.54;47.25;101103.91;4771350;30;20062;-57
2022/12/23 06:19:23;;;;;;;12.70;8.27;;;;;;;19.53;47.27;101092.31;4771768;30;20459;-57
2022/12/23 06:21:50;;;;;;;11.73;8.20;;;;;;;19.52;47.32;101088.75;4770972;30;20059;-56
2022/12/23 06:24:17;;;;;;;10.75;7.97;;;;;;;19.53;47.30;101076.22;4770954;30;20052;-56
2022/12/23 06:26:45;;;;;;;9.70;8.25;;;;;;;19.53;47.20;101070.84;4770913;30;20052;-55
2022/12/23 06:29:12;;;;;;;10.98;7.78;;;;;;;19.52;47.24;101066.41;4770879;30;20055;-57
2022/12/23 06:31:39;;;;;;;11.65;8.50;;;;;;;19.52;47.28;101066.41;4770850;30;20051;-57
2022/12/23 06:34:06;;;;;;;9.88;8.38;;;;;;;19.51;47.31;101060.19;4770587;30;20054;-56
2022/12/23 06:36:34;;;;;;;10.43;8.20;;;;;;;19.52;47.43;101063.75;4770728;30;20067;-56
2022/12/23 06:39:01;;;;;;;9.82;8.38;;;;;;;19.51;47.43;101070.09;4770424;30;20052;-56
2022/12/23 06:41:28;;;;;;;8.98;7.50;;;;;;;19.52;47.41;101069.09;4770616;30;20047;-59
2022/12/23 06:43:56;;;;;;;11.32;7.97;;;;;;;19.53;47.51;101068.16;4771110;30;20060;-59
2022/12/23 06:46:23;;;;;;;10.20;8.48;;;;;;;19.52;47.56;101077.16;4769779;30;20051;-59
2022/12/23 06:48:50;;;;;;;11.90;7.82;;;;;;;19.52;47.50;101074.47;4771148;30;20056;-59
2022/12/23 06:51:18;;;;;;;13.23;8.35;;;;;;;19.52;47.25;101067.28;4770626;30;20395;-58
2022/12/23 06:53:45;;;;;;;14.10;8.63;;;;;;;19.52;47.42;101082.53;4770567;30;20052;-58
2022/12/23 06:56:12;;;;;;;11.52;8.73;;;;;;;19.51;47.36;101089.75;4770622;30;20063;-58
2022/12/23 06:58:40;;;;;;;11.57;8.15;;;;;;;19.51;47.39;101086.19;4772473;30;20055;-59
2022/12/23 07:01:07;;;;;;;10.80;8.45;;;;;;;19.50;47.52;101093.41;4774563;30;20515;-58
2022/12/23 07:03:36;;;;;;;10.27;8.25;;;;;;;19.50;47.34;101084.50;4774265;30;20047;-59
2022/12/23 07:06:03;;;;;;;11.38;8.05;;;;;;;19.49;47.27;101093.56;4774125;30;20059;-59
2022/12/23 07:08:31;;;;;;;9.57;7.72;;;;;;;19.50;47.33;101092.56;4774173;30;20062;-58
2022/12/23 07:10:59;;;;;;;10.63;6.97;;;;;;;19.48;47.42;101081.06;4774090;30;20052;-58
2022/12/23 07:13:27;;;;;;;10.90;8.23;;;;;;;19.49;47.26;101080.13;4774036;30;20052;-58
2022/12/23 07:15:54;;;;;;;10.77;8.13;;;;;;;19.48;47.24;101081.06;4774045;30;20055;-59
2022/12/23 07:18:23;;;;;;;12.65;7.93;;;;;;;19.48;47.16;101089.97;4774017;30;20099;-58
2022/12/23 07:20:51;;;;;;;12.35;7.65;;;;;;;19.48;47.28;101097.19;4773938;30;20054;-59
2022/12/23 07:23:18;;;;;;;11.50;8.23;;;;;;;19.49;47.24;101098.91;4773841;30;20055;-59
2022/12/23 07:25:45;;;;;;;10.10;7.78;;;;;;;19.48;47.22;101087.31;4773828;30;20499;-58
2022/12/23 07:28:12;;;;;;;8.90;8.00;;;;;;;19.48;47.15;101081.06;4774102;30;20056;-59
2022/12/23 07:30:40;;;;;;;8.90;7.53;;;;;;;19.48;47.08;101075.72;4773836;30;20055;-59
2022/12/23 07:33:07;;;;;;;10.63;7.95;;;;;;;19.47;47.08;101069.50;4773702;30;20051;-59
2022/12/23 07:35:34;;;;;;;11.48;8.70;;;;;;;19.46;47.03;101081.22;4773734;30;20442;-50
2022/12/23 07:38:02;;;;;;;11.45;8.20;;;;;;;19.47;47.02;101087.44;4773707;30;20067;-48
2022/12/23 07:40:30;;;;;;;9.85;7.82;;;;;;;19.47;47.01;101088.28;4773533;30;20483;-49
2022/12/23 07:42:58;;;;;;;10.65;8.07;;;;;;;19.48;47.14;101102.56;4773433;30;20510;-49
2022/12/23 07:45:27;;;;;;;11.43;8.15;;;;;;;19.48;46.99;101102.56;4772830;30;20416;-48
2022/12/23 07:47:56;;;;;;;9.05;7.13;;;;;;;19.49;47.02;101106.97;4773597;30;20060;-48
2022/12/23 07:50:25;;;;;;;10.57;8.00;;;;;;;19.49;46.98;101112.34;4773451;30;20062;-47
2022/12/23 07:52:53;;;;;;;7.90;6.72;;;;;;;19.47;47.02;101112.44;4773438;30;20050;-48
2022/12/23 07:55:21;;;;;;;8.98;7.80;;;;;;;19.47;46.96;101109.78;4773408;30;20054;-47
2022/12/23 07:57:50;;;;;;;9.15;7.28;;;;;;;19.48;46.89;101113.31;4773474;30;20155;-48
2022/12/23 08:00:19;;;;;;;11.38;7.20;;;;;;;19.47;46.86;101114.28;4773265;30;20051;-50
2022/12/23 08:02:47;;;;;;;10.02;7.03;;;;;;;19.46;46.90;101112.59;4773050;30;20051;-51
2022/12/23 08:05:15;;;;;;;10.27;7.82;;;;;;;19.47;46.82;101122.34;4772761;30;20048;-48
2022/12/23 08:07:44;;;;;;;8.15;7.00;;;;;;;19.46;46.93;101140.28;4772588;30;20048;-48
2022/12/23 08:10:11;;;;;;;8.43;6.90;;;;;;;19.47;46.75;101143.81;4771693;30;20047;-49
2022/12/23 08:12:39;;;;;;;9.07;6.97;;;;;;;19.47;46.71;101143.81;4772542;30;20052;-49
2022/12/23 08:15:07;;;;;;;10.95;6.97;;;;;;;19.46;47.03;101134.91;4772955;30;20052;-49
2022/12/23 08:17:34;;;;;;;7.60;6.72;;;;;;;19.45;46.87;101111.75;4773039;30;20058;-49
2022/12/23 08:20:01;;;;;;;8.68;7.05;;;;;;;19.45;46.76;101124.31;4772921;30;20048;-49
2022/12/23 08:22:30;;;;;;;8.20;7.25;;;;;;;19.44;46.76;101118.06;4773173;30;20056;-51
2022/12/23 08:24:58;;;;;;;9.60;7.43;;;;;;;19.44;46.79;101112.69;4772964;30;20059;-49
2022/12/23 08:27:26;;;;;;;9.40;6.80;;;;;;;19.44;46.69;101109.16;4772965;30;20399;-49
2022/12/23 08:29:54;;;;;;;7.47;6.57;;;;;;;19.45;46.67;101105.53;4772746;30;20052;-50
2022/12/23 08:32:25;;;;;;;7.32;6.55;;;;;;;19.44;46.80;101107.31;4772673;30;20479;-48
2022/12/23 08:34:55;;;;;;;8.52;7.22;;;;;;;19.45;46.74;101118.94;4772723;30;20055;-49
2022/12/23 08:37:24;;;;;;;8.40;7.13;;;;;;;19.44;46.62;101107.31;4772595;30;20058;-49
2022/12/23 08:39:51;;;;;;;9.20;6.63;;;;;;;19.46;46.87;101104.53;4772607;30;20051;-50
2022/12/23 08:42:19;;;;;;;9.05;7.25;;;;;;;19.47;46.62;101100.88;4772683;30;20054;-48
2022/12/23 08:44:46;;;;;;;8.23;6.25;;;;;;;19.49;46.57;101109.66;4772629;30;20062;-49
2022/12/23 08:47:13;;;;;;;7.30;6.00;;;;;;;19.50;46.38;101114.88;4772402;30;20051;-49
2022/12/23 08:49:41;;;;;;;8.07;6.15;;;;;;;19.52;46.49;101117.44;4772492;30;20048;-49
2022/12/23 08:52:08;;;;;;;8.10;6.93;;;;;;;19.54;46.30;101111.97;4772436;30;20043;-50
2022/12/23 08:54:35;;;;;;;8.00;6.43;;;;;;;19.54;46.44;101110.13;4772383;30;20063;-50
2022/12/23 08:57:02;;;;;;;8.02;6.38;;;;;;;19.56;46.19;101120.72;4772207;30;20082;-50
2022/12/23 08:59:30;;;;;;;8.88;7.15;;;;;;;19.57;46.28;101131.38;4772392;30;20052;-48
2022/12/23 09:01:58;;;;;;;8.60;7.10;;;;;;;19.57;46.37;101127.81;4772598;30;20055;-49
2022/12/23 09:04:26;;;;;;;7.70;6.75;;;;;;;19.59;46.00;101133.91;4772247;30;20066;-49
2022/12/23 09:06:53;;;;;;;6.75;5.90;;;;;;;19.58;46.19;101130.38;4772371;30;20047;-51
2022/12/23 09:09:20;;;;;;;7.82;6.18;;;;;;;19.58;46.22;101132.22;4772152;30;20056;-53
2022/12/23 09:11:47;;;;;;;8.75;6.78;;;;;;;19.58;46.16;101135.75;4772068;30;20079;-50
2022/12/23 09:14:15;;;;;;;7.68;6.72;;;;;;;19.59;46.45;101142.81;4772151;30;20059;-48
2022/12/23 09:16:42;;;;;;;9.95;6.70;;;;;;;19.59;45.96;101137.44;4772133;30;20060;-48
2022/12/23 09:19:09;;;;;;;7.63;6.40;;;;;;;19.60;46.19;101138.31;4771990;30;20064;-48
2022/12/23 09:21:37;;;;;;;7.93;6.78;;;;;;;19.60;46.27;101130.25;4771495;30;20063;-52
2022/12/23 09:24:05;;;;;;;7.63;6.43;;;;;;;19.60;46.19;101132.94;4772182;30;20059;-48
2022/12/23 09:26:32;;;;;;;7.45;5.90;;;;;;;19.61;46.30;101131.97;4771463;30;20059;-50
2022/12/23 09:28:59;;;;;;;11.90;9.55;;;;;;;19.62;46.33;101131.03;4771677;30;20059;-48
2022/12/23 09:31:27;;;;;;;13.75;10.32;;;;;;;19.61;46.29;101135.53;4771615;30;20058;-47
2022/12/23 09:34:03;;;;;;;13.88;11.18;;;;;;;19.60;46.36;101132.94;4771608;30;20407;-49
2022/12/23 09:36:31;;;;;;;13.40;11.25;;;;;;;19.60;46.37;101125.72;4771689;30;20419;-49
2022/12/23 09:38:58;;;;;;;12.88;10.27;;;;;;;19.61;46.45;101129.28;4771627;30;20058;-50
2022/12/23 09:41:49;;;;;;;15.98;10.95;;;;;;;19.60;46.28;101128.41;4771590;30;20411;-49
2022/12/23 09:44:47;;;;;;;16.20;13.02;;;;;;;19.58;46.08;101125.00;4771551;30;20055;-50
2022/12/23 09:47:19;;;;;;;14.07;11.38;;;;;;;19.59;46.33;101133.91;4771578;30;20058;-48
2022/12/23 09:50:01;;;;;;;15.40;12.93;;;;;;;19.58;45.99;101134.91;4771584;30;20067;-49
2022/12/23 09:52:51;;;;;;;18.90;13.70;;;;;;;19.57;45.94;101144.78;4771433;30;20056;-51
2022/12/23 09:55:22;;;;;;;17.08;13.57;;;;;;;19.56;45.99;101131.47;4771469;30;20047;-48
2022/12/23 09:58:05;;;;;;;17.20;13.70;;;;;;;19.56;45.88;101118.91;4771094;30;20059;-51
2022/12/23 10:00:46;;;;;;;21.52;12.82;;;;;;;19.57;46.03;101114.38;4770951;30;20055;-48
2022/12/23 10:03:24;;;;;;;18.15;12.70;;;;;;;19.57;45.95;101117.94;4771409;30;20399;-47
2022/12/23 10:05:55;;;;;;;15.10;12.30;;;;;;;19.57;45.98;101117.06;4771304;30;20052;-48
2022/12/23 10:08:53;;;;;;;20.58;14.95;;;;;;;19.56;45.65;101126.09;4770931;30;20507;-48
2022/12/23 10:11:45;;;;;;;18.73;14.15;;;;;;;19.55;45.81;101129.78;4770547;30;20415;-48
2022/12/23 10:14:30;;;;;;;20.15;14.68;;;;;;;19.54;45.60;101123.56;4770088;30;20059;-50
2022/12/23 10:17:07;;;;;;;17.20;13.85;;;;;;;19.50;45.63;101117.56;4770793;30;20060;-48
2022/12/23 10:19:40;;;;;;;16.30;14.38;;;;;;;19.49;45.61;101115.03;4769825;30;20060;-48
2022/12/23 10:22:36;;;;;;;20.25;15.48;;;;;;;19.46;45.51;101126.88;4771119;30;20055;-49
2022/12/23 10:25:21;;;;;;;19.88;15.48;;;;;;;19.45;45.39;101135.06;4771149;30;20051;-48
2022/12/23 10:27:48;;;;;;;19.58;15.40;;;;;;;19.45;45.68;101137.75;4771070;30;20062;-47
2022/12/23 10:30:26;;;;;;;23.45;15.02;;;;;;;19.44;45.82;101125.28;4770738;30;20056;-48
2022/12/23 10:33:29;;;;;;;19.23;13.43;;;;;;;19.46;45.93;101134.06;4770123;30;20058;-48
2022/12/23 10:36:18;;;;;;;24.67;16.58;;;;;;;19.46;45.72;101123.34;4770914;30;20051;-48
2022/12/23 10:38:46;;;;;;;20.13;14.30;;;;;;;19.47;45.86;101122.34;4770718;30;20056;-48
2022/12/23 10:41:37;;;;;;;22.48;13.40;;;;;;;19.48;45.70;101124.03;4770869;30;20079;-48
2022/12/23 10:44:25;;;;;;;16.55;13.40;;;;;;;19.49;45.65;101128.47;4770837;30;20051;-46
2022/12/23 10:47:10;;;;;;;21.08;16.73;;;;;;;19.43;45.67;101120.88;4770756;30;20054;-47
2022/12/23 10:49:57;;;;;;;25.13;18.77;;;;;;;19.25;45.63;101113.38;4771007;30;20060;-47
2022/12/23 10:52:28;;;;;;;20.30;17.17;;;;;;;19.13;46.21;101108.13;4771032;30;20054;-50
2022/12/23 10:54:55;;;;;;;25.10;18.65;;;;;;;19.02;46.18;101107.16;4770509;30;20123;-47
2022/12/23 10:57:24;;;;;;;21.65;17.40;;;;;;;18.96;46.43;101098.78;4770509;30;20082;-50
2022/12/23 10:59:52;;;;;;;19.77;16.00;;;;;;;18.99;46.55;101090.44;4770681;30;20052;-48
2022/12/23 11:02:44;;;;;;;19.27;14.75;;;;;;;19.04;46.71;101082.91;4770526;30;20059;-48
2022/12/23 11:05:21;;;;;;;15.67;11.83;;;;;;;19.11;46.79;101084.09;4770784;30;20403;-49
2022/12/23 11:07:48;;;;;;;13.65;11.85;;;;;;;19.18;47.11;101097.88;4770568;30;20059;-48
2022/12/23 11:10:19;;;;;;;13.88;10.95;;;;;;;19.22;46.82;101108.25;4770639;30;20055;-49
2022/12/23 11:12:51;;;;;;;15.23;11.10;;;;;;;19.26;46.93;101108.84;4770264;30;20067;-48
2022/12/23 11:15:30;;;;;;;16.63;11.77;;;;;;;19.30;47.17;101114.81;4770383;30;20056;-48
2022/12/23 11:18:17;;;;;;;14.90;10.20;;;;;;;19.32;46.96;101119.06;4770565;30;20052;-52
2022/12/23 11:21:02;;;;;;;11.60;9.70;;;;;;;19.35;46.96;101126.88;4770502;30;20415;-48
2022/12/23 11:23:35;;;;;;;11.98;8.63;;;;;;;19.37;47.18;101137.50;4770344;30;20056;-48
2022/12/23 11:26:08;;;;;;;;;;;;;;;19.40;47.12;101145.28;4770739;30;20052;-48
2022/12/23 11:28:47;;;;;;;11.60;8.27;;;;;;;19.40;47.29;101124.66;4770202;30;19926;-48
2022/12/23 11:31:15;;;;;;;10.90;8.57;;;;;;;19.41;47.01;101112.97;4770427;30;20495;-47
2022/12/23 11:34:04;;;;;;;11.93;7.70;;;;;;;19.41;47.09;101118.34;4770794;30;20051;-49
2022/12/23 11:36:32;;;;;;;14.77;8.32;;;;;;;19.43;46.92;101126.25;4769666;30;20056;-48
2022/12/23 11:39:13;;;;;;;12.02;8.38;;;;;;;19.43;46.84;101127.09;4769902;30;20488;-48
2022/12/23 11:41:47;;;;;;;11.32;8.20;;;;;;;19.43;46.67;101110.16;4769481;30;20059;-49
2022/12/23 11:44:29;;;;;;;9.25;7.80;;;;;;;19.45;46.68;101105.53;4770900;30;20043;-51
2022/12/23 11:47:16;;;;;;;8.18;7.00;;;;;;;19.45;46.95;101084.88;4772974;30;20051;-48
2022/12/23 11:49:52;;;;;;;9.63;8.05;;;;;;;19.45;46.91;101051.81;4772945;30;20059;-47
2022/12/23 11:52:22;;;;;;;10.70;8.02;;;;;;;19.46;46.93;101042.78;4772904;30;20078;-48
2022/12/23 11:54:54;;;;;;;7.90;7.10;;;;;;;19.45;46.83;101033.88;4772639;30;20047;-47
2022/12/23 11:57:26;;;;;;;10.52;6.63;;;;;;;19.47;46.98;101028.38;4772567;30;20427;-47
2022/12/23 12:00:00;;;;;;;8.63;7.15;;;;;;;19.46;46.98;101007.88;4772655;30;20060;-47
2022/12/23 12:02:41;;;;;;;8.98;6.90;;;;;;;19.46;46.87;101008.72;4778931;30;20060;-48
2022/12/23 12:05:21;;;;;;;8.48;6.65;;;;;;;19.46;47.07;101018.63;4772888;30;20511;-48
2022/12/23 12:07:50;;;;;;;9.60;7.43;;;;;;;19.46;47.05;101024.84;4772658;30;20066;-47
2022/12/23 12:10:26;;;;;;;8.82;6.45;;;;;;;19.47;46.95;101020.31;4772606;30;20052;-47
2022/12/23 12:13:02;;;;;;;10.43;7.65;;;;;;;19.47;46.95;101028.38;4772492;30;20074;-51
2022/12/23 12:15:47;;;;;;;7.95;6.65;;;;;;;19.47;47.04;101031.06;4772925;30;20064;-47